Time;durP1;ratioP1;P1;durP2;ratioP2;P2;SDS_P1;SDS_P2;PMS_P1;PMS_P2;Temp;Humidity;BMP_temperature;BMP_pressure;BME280_temperature;BME280_humidity;BME280_pressure;Samples;Min_cycle;Max_cycle;Signal;HPM_P1;HPM_P2
2022/12/29 00:01:57;;;;;;;47.40;31.17;;;77.70;2227.20;;;;;;5090206;28;20169;-64
2022/12/29 00:04:22;;;;;;;96.88;62.38;;;77.70;2227.20;;;;;;5090292;28;20039;-64
2022/12/29 00:06:48;;;;;;;61.95;35.67;;;77.70;2227.20;;;;;;5090690;28;20401;-65
2022/12/29 00:09:16;;;;;;;51.63;33.33;;;77.70;2227.20;;;;;;5092329;28;20032;-64
2022/12/29 00:11:41;;;;;;;41.97;24.98;;;102.40;2227.20;;;;;;5091465;28;20101;-65
2022/12/29 00:16:56;;;;;;;22.75;13.57;;;102.40;2227.20;;;;;;5091767;28;20492;-64
2022/12/29 00:36:21;;;;;;;48.38;30.20;;;77.60;2227.20;;;;;;5091791;28;20043;-64
2022/12/29 00:44:24;;;;;;;45.03;27.90;;;77.60;2227.20;;;;;;5091105;28;20185;-65
2022/12/29 00:46:49;;;;;;;55.53;32.45;;;77.70;2227.20;;;;;;5091203;28;20103;-64
2022/12/29 00:49:30;;;;;;;39.92;27.77;;;77.70;2227.20;;;;;;5091308;28;20461;-64
2022/12/29 00:52:08;;;;;;;46.70;26.38;;;102.40;2227.20;;;;;;5091114;28;20059;-64
2022/12/29 00:54:36;;;;;;;113.78;69.07;;;102.40;2227.20;;;;;;5091029;28;20028;-65
2022/12/29 00:57:03;;;;;;;112.60;69.05;;;102.50;2227.20;;;;;;5091051;28;20016;-64
2022/12/29 00:59:29;;;;;;;106.07;62.20;;;102.50;2227.20;;;;;;5090625;28;20036;-64
2022/12/29 01:01:55;;;;;;;71.65;44.85;;;102.40;2227.20;;;;;;5091107;28;20032;-65
2022/12/29 01:04:23;;;;;;;56.40;36.55;;;102.40;2227.20;;;;;;5090652;28;20537;-65
2022/12/29 01:06:49;;;;;;;59.00;37.30;;;102.40;2227.20;;;;;;5090916;28;20077;-64
2022/12/29 01:12:00;;;;;;;82.88;50.20;;;102.40;2227.20;;;;;;5090650;28;20093;-65
2022/12/29 01:14:27;;;;;;;43.38;26.88;;;102.40;2227.20;;;;;;5090829;28;20024;-65
2022/12/29 01:16:53;;;;;;;51.22;31.38;;;102.40;2227.20;;;;;;5090752;28;20028;-65
2022/12/29 01:19:19;;;;;;;30.73;19.85;;;102.40;2227.20;;;;;;5090703;28;20032;-65
2022/12/29 01:21:46;;;;;;;33.85;21.95;;;102.40;2227.20;;;;;;5090730;28;20081;-64
2022/12/29 01:24:12;;;;;;;45.72;28.60;;;102.40;2227.20;;;;;;5090591;28;20436;-64
2022/12/29 01:26:37;;;;;;;35.92;23.33;;;102.40;2227.20;;;;;;5090668;28;20036;-65
2022/12/29 01:29:03;;;;;;;58.65;31.00;;;102.50;2227.20;;;;;;5090107;28;20055;-65
2022/12/29 01:31:29;;;;;;;51.83;29.00;;;102.50;2227.20;;;;;;5089954;28;20043;-65
2022/12/29 01:33:54;;;;;;;50.33;30.50;;;102.50;2227.20;;;;;;5090416;28;20031;-65
2022/12/29 01:36:20;;;;;;;36.47;25.75;;;102.50;2227.20;;;;;;5090183;28;20107;-64
2022/12/29 01:38:46;;;;;;;37.15;24.02;;;102.50;2227.20;;;;;;5090256;28;20032;-65
2022/12/29 01:41:15;;;;;;;37.40;20.50;;;102.50;2227.20;;;;;;5090449;28;20020;-65
2022/12/29 01:43:45;;;;;;;32.03;18.10;;;102.50;2227.20;;;;;;5090183;28;20043;-65
2022/12/29 01:46:36;;;;;;;46.75;25.55;;;102.50;2227.20;;;;;;5089920;28;20100;-65
2022/12/29 01:49:07;;;;;;;43.60;22.63;;;102.50;2227.20;;;;;;5089152;28;20036;-65
2022/12/29 01:51:38;;;;;;;43.35;27.27;;;102.60;2227.20;;;;;;5090295;28;20071;-65
2022/12/29 01:54:09;;;;;;;72.20;46.03;;;102.60;2227.20;;;;;;5090310;28;20024;-65
2022/12/29 01:56:36;;;;;;;58.42;35.53;;;102.50;2227.20;;;;;;5090168;28;20035;-65
2022/12/29 01:59:06;;;;;;;84.05;44.90;;;102.70;2227.20;;;;;;5090033;28;20024;-64
2022/12/29 02:01:32;;;;;;;59.10;37.47;;;102.60;2227.20;;;;;;5089891;28;20039;-64
2022/12/29 02:03:58;;;;;;;70.47;42.38;;;102.60;2227.20;;;;;;5089867;28;20024;-65
2022/12/29 02:06:31;;;;;;;39.78;25.92;;;102.60;2227.20;;;;;;5090056;28;20028;-65
2022/12/29 02:08:57;;;;;;;50.75;25.48;;;102.60;2227.20;;;;;;5090047;28;20035;-64
2022/12/29 02:11:26;;;;;;;43.13;19.63;;;102.50;2227.20;;;;;;5090111;28;20398;-65
2022/12/29 02:13:53;;;;;;;34.60;22.80;;;102.60;2227.20;;;;;;5089893;28;20024;-65
2022/12/29 02:16:48;;;;;;;49.95;30.90;;;102.70;2227.20;;;;;;5089959;28;20294;-66
2022/12/29 02:19:49;;;;;;;52.28;32.53;;;102.70;2227.20;;;;;;5090274;28;20025;-64
2022/12/29 02:22:22;;;;;;;95.93;52.42;;;102.70;2227.20;;;;;;5058594;28;20085;-64
2022/12/29 02:25:19;;;;;;;124.28;70.40;;;102.70;2227.20;;;;;;5089759;28;20541;-65
2022/12/29 02:27:58;;;;;;;56.28;30.15;;;102.60;2227.20;;;;;;5089858;28;20056;-65
2022/12/29 02:30:43;;;;;;;61.88;35.75;;;102.70;2227.20;;;;;;5089728;28;20469;-64
2022/12/29 02:33:29;;;;;;;42.88;28.33;;;102.70;2227.20;;;;;;5089687;28;20093;-64
2022/12/29 02:36:24;;;;;;;44.72;26.25;;;102.70;2227.20;;;;;;5089785;28;20043;-64
2022/12/29 02:39:14;;;;;;;42.83;24.85;;;102.80;2227.20;;;;;;5089749;28;20052;-65
2022/12/29 02:42:03;;;;;;;30.90;21.77;;;102.90;2227.20;;;;;;5090069;28;20131;-65
2022/12/29 02:44:31;;;;;;;47.55;28.92;;;102.90;2227.20;;;;;;5011041;28;20046;-65
2022/12/29 02:47:05;;;;;;;46.03;28.08;;;103.00;2227.20;;;;;;5011532;28;20034;-64
2022/12/29 02:49:41;;;;;;;46.15;27.95;;;103.00;2227.20;;;;;;5011223;28;20113;-64
2022/12/29 02:52:27;;;;;;;26.73;15.95;;;103.00;2227.20;;;;;;5011379;28;20263;-64
2022/12/29 02:54:55;;;;;;;23.17;14.77;;;102.90;2227.20;;;;;;5011332;28;20053;-64
2022/12/29 02:57:21;;;;;;;21.05;12.75;;;102.80;2227.20;;;;;;5011125;28;20026;-64
2022/12/29 03:00:01;;;;;;;24.58;14.93;;;102.90;2227.20;;;;;;5011353;28;20461;-64
2022/12/29 03:02:57;;;;;;;27.63;14.80;;;102.80;2227.20;;;;;;5011077;28;20038;-64
2022/12/29 03:05:42;;;;;;;25.98;16.35;;;102.90;2227.20;;;;;;5011045;28;20037;-65
2022/12/29 03:08:34;;;;;;;25.00;14.82;;;102.80;2227.20;;;;;;5010939;28;20500;-65
2022/12/29 03:12:07;;;;;;;25.67;15.70;;;102.80;2227.20;;;;;;5010805;28;20046;-65
2022/12/29 03:16:49;;;;;;;22.92;13.27;;;102.90;2227.20;;;;;;5011325;28;20415;-64
2022/12/29 03:19:32;;;;;;;19.15;12.77;;;102.80;2227.20;;;;;;5010986;28;20064;-64
2022/12/29 03:24:52;;;;;;;15.70;9.50;;;102.80;2227.20;;;;;;5092660;28;20554;-66
2022/12/29 03:27:30;;;;;;;11.48;7.47;;;102.80;2227.20;;;;;;5092704;28;20095;-62
2022/12/29 03:30:01;;;;;;;15.20;9.23;;;102.80;2227.20;;;;;;5092595;28;20114;-64
2022/12/29 03:32:50;;;;;;;12.68;8.35;;;102.80;2227.20;;;;;;5092642;28;20580;-65
2022/12/29 03:35:19;;;;;;;22.33;12.13;;;102.90;2227.20;;;;;;5092183;28;20035;-64
2022/12/29 03:38:19;;;;;;;23.65;12.48;;;102.90;2227.20;;;;;;5092584;28;20027;-63
2022/12/29 03:40:55;;;;;;;18.60;10.50;;;102.80;2227.20;;;;;;5092550;28;20050;-64
2022/12/29 03:43:21;;;;;;;24.58;13.57;;;102.80;2227.20;;;;;;5092480;28;20052;-65
2022/12/29 03:45:47;;;;;;;23.98;13.30;;;102.80;2227.20;;;;;;5092541;28;20028;-64
2022/12/29 03:48:14;;;;;;;14.93;10.57;;;102.70;2227.20;;;;;;5092444;28;20044;-65
2022/12/29 03:50:40;;;;;;;26.40;15.68;;;102.60;2227.20;;;;;;5092059;28;20031;-64
2022/12/29 03:53:06;;;;;;;23.92;13.63;;;102.70;2227.20;;;;;;5091588;28;20067;-65
2022/12/29 03:55:31;;;;;;;19.85;12.85;;;102.70;2227.20;;;;;;5091887;28;20059;-64
2022/12/29 03:57:57;;;;;;;16.40;9.82;;;102.70;2227.20;;;;;;5092531;28;21061;-64
2022/12/29 04:00:23;;;;;;;18.60;11.77;;;102.60;2227.20;;;;;;5092013;28;20497;-65
2022/12/29 04:02:49;;;;;;;26.33;19.40;;;102.60;2227.20;;;;;;5092085;28;20020;-64
2022/12/29 04:05:14;;;;;;;23.05;13.68;;;102.50;2227.20;;;;;;5091998;28;20028;-65
2022/12/29 04:07:40;;;;;;;36.25;20.70;;;102.50;2227.20;;;;;;5091637;28;20029;-65
2022/12/29 04:10:06;;;;;;;22.10;13.48;;;102.40;2227.20;;;;;;5091907;28;20032;-66
2022/12/29 04:12:31;;;;;;;16.50;10.88;;;77.70;2227.20;;;;;;5091659;28;20047;-65
2022/12/29 04:14:57;;;;;;;17.55;11.43;;;77.70;2227.20;;;;;;5092313;28;20100;-65
2022/12/29 04:17:23;;;;;;;16.58;10.75;;;102.50;2022.40;;;;;;5092972;28;20024;-66
2022/12/29 04:19:48;;;;;;;20.30;11.90;;;102.50;2227.20;;;;;;5092902;28;20542;-65
2022/12/29 04:22:14;;;;;;;15.35;9.43;;;102.60;2227.20;;;;;;5093200;28;20024;-65
2022/12/29 04:24:40;;;;;;;19.48;11.57;;;102.60;2227.20;;;;;;5092100;28;20028;-65
2022/12/29 04:27:05;;;;;;;17.05;11.82;;;102.60;2227.20;;;;;;5091711;28;20043;-65
2022/12/29 04:29:31;;;;;;;19.95;11.13;;;102.70;2227.20;;;;;;5091859;28;20055;-65
2022/12/29 04:31:57;;;;;;;19.52;10.48;;;102.70;2227.20;;;;;;5091434;28;20036;-66
2022/12/29 04:34:22;;;;;;;235.85;112.75;;;102.70;2099.20;;;;;;5091675;28;20082;-64
2022/12/29 04:36:48;;;;;;;31.45;18.77;;;102.70;2048.00;;;;;;5091616;28;20039;-65
2022/12/29 04:39:14;;;;;;;23.83;13.40;;;102.70;1843.20;;;;;;5091608;28;20100;-64
2022/12/29 04:41:39;;;;;;;55.08;32.17;;;102.70;2227.20;;;;;;5091611;28;20036;-65
2022/12/29 04:44:05;;;;;;;34.15;20.40;;;102.60;2227.20;;;;;;5091495;28;20048;-64
2022/12/29 04:46:31;;;;;;;25.13;13.82;;;102.60;2227.20;;;;;;5091555;28;20023;-65
2022/12/29 04:48:57;;;;;;;35.33;20.42;;;102.70;2227.20;;;;;;5091797;28;20099;-64
2022/12/29 04:51:22;;;;;;;21.45;13.43;;;102.70;2227.20;;;;;;5092507;28;20028;-69
2022/12/29 04:53:48;;;;;;;19.05;10.05;;;102.70;1868.80;;;;;;5091467;28;20469;-64
2022/12/29 04:56:14;;;;;;;14.98;9.30;;;102.60;2227.20;;;;;;5090925;28;20032;-64
2022/12/29 04:58:39;;;;;;;14.98;8.77;;;102.60;2227.20;;;;;;5091164;28;20031;-64
2022/12/29 05:01:05;;;;;;;18.88;12.55;;;102.70;2227.20;;;;;;5091154;28;20501;-63
2022/12/29 05:03:31;;;;;;;21.90;14.85;;;102.70;2227.20;;;;;;5090753;28;20095;-64
2022/12/29 05:05:57;;;;;;;17.23;11.10;;;102.70;2022.40;;;;;;5090215;28;20566;-64
2022/12/29 05:08:23;;;;;;;14.73;9.30;;;102.70;2022.40;;;;;;5090800;28;20103;-65
2022/12/29 05:10:51;;;;;;;17.83;10.18;;;102.70;2227.20;;;;;;5090686;28;20047;-65
2022/12/29 05:13:17;;;;;;;18.55;14.10;;;102.70;2176.00;;;;;;5090930;28;20028;-64
2022/12/29 05:15:51;;;;;;;13.88;9.32;;;102.70;1971.20;;;;;;5090730;28;20126;-64
2022/12/29 05:18:17;;;;;;;17.08;10.00;;;102.70;2227.20;;;;;;5090889;28;20028;-65
2022/12/29 05:20:43;;;;;;;18.55;10.02;;;102.80;2227.20;;;;;;5090709;28;20404;-65
2022/12/29 05:23:09;;;;;;;16.75;10.48;;;102.80;2227.20;;;;;;5090401;28;20035;-65
2022/12/29 05:25:34;;;;;;;49.75;23.52;;;102.80;2227.20;;;;;;5090600;28;20032;-64
2022/12/29 05:28:00;;;;;;;18.60;11.15;;;102.80;1971.20;;;;;;5090564;28;20032;-64
2022/12/29 05:30:25;;;;;;;18.30;10.38;;;102.80;2227.20;;;;;;5090524;28;20462;-65
2022/12/29 05:32:52;;;;;;;14.32;7.72;;;102.60;2227.20;;;;;;5090337;28;20043;-65
2022/12/29 05:35:17;;;;;;;17.75;10.20;;;102.70;2227.20;;;;;;5090260;28;20377;-66
2022/12/29 05:37:43;;;;;;;19.83;9.73;;;102.60;2227.20;;;;;;5090010;28;20028;-64
2022/12/29 05:40:09;;;;;;;15.55;10.00;;;102.60;2227.20;;;;;;5090034;28;20028;-65
2022/12/29 05:42:35;;;;;;;17.48;10.25;;;102.60;2227.20;;;;;;5089738;28;20063;-64
2022/12/29 05:45:00;;;;;;;14.50;10.18;;;102.50;2227.20;;;;;;5089632;28;20066;-64
2022/12/29 05:47:26;;;;;;;18.67;10.82;;;102.50;2227.20;;;;;;5090225;28;20114;-63
2022/12/29 05:49:52;;;;;;;17.38;11.98;;;102.40;2227.20;;;;;;5089883;28;20020;-64
2022/12/29 05:52:18;;;;;;;14.23;8.88;;;102.40;2227.20;;;;;;5090089;28;20043;-63
2022/12/29 05:54:43;;;;;;;13.38;9.57;;;102.40;2124.80;;;;;;5090164;28;20035;-63
2022/12/29 05:57:09;;;;;;;15.23;9.35;;;102.50;1945.60;;;;;;5089987;28;20039;-64
2022/12/29 05:59:35;;;;;;;16.52;10.48;;;102.50;2048.00;;;;;;5089994;28;20381;-63
2022/12/29 06:02:01;;;;;;;22.17;12.20;;;102.50;1971.20;;;;;;5090031;28;20115;-63
2022/12/29 06:04:26;;;;;;;32.17;18.88;;;102.60;2227.20;;;;;;5090144;28;20032;-64
2022/12/29 06:06:52;;;;;;;123.35;78.70;;;102.70;1894.40;;;;;;5090041;28;20077;-63
2022/12/29 06:09:18;;;;;;;23.50;14.57;;;102.70;2124.80;;;;;;5089832;28;20024;-65
2022/12/29 06:11:43;;;;;;;24.13;14.55;;;102.70;2124.80;;;;;;5090043;28;20040;-64
2022/12/29 06:14:09;;;;;;;22.63;15.35;;;102.70;2227.20;;;;;;5089888;28;20086;-64
2022/12/29 06:16:35;;;;;;;17.95;11.65;;;102.80;2227.20;;;;;;5090735;28;20028;-64
2022/12/29 06:19:01;;;;;;;18.23;15.05;;;102.80;2227.20;;;;;;5093954;28;20032;-64
2022/12/29 06:21:27;;;;;;;15.75;9.70;;;102.80;2227.20;;;;;;5094109;28;20032;-63
2022/12/29 06:23:53;;;;;;;15.52;11.13;;;102.80;2227.20;;;;;;5094162;28;20028;-64
2022/12/29 06:26:19;;;;;;;12.45;8.70;;;102.80;1894.40;;;;;;5093981;28;20389;-65
2022/12/29 06:28:44;;;;;;;19.77;14.88;;;102.90;2048.00;;;;;;5094002;28;20110;-64
2022/12/29 06:31:10;;;;;;;21.45;17.95;;;102.90;2227.20;;;;;;5093756;28;20211;-63
2022/12/29 06:33:37;;;;;;;15.65;10.35;;;102.90;1894.40;;;;;;5094151;28;20020;-64
2022/12/29 06:36:03;;;;;;;19.30;13.95;;;102.90;2227.20;;;;;;5093813;28;20101;-64
2022/12/29 06:38:29;;;;;;;32.65;27.83;;;103.00;2227.20;;;;;;5093611;28;20086;-65
2022/12/29 06:40:54;;;;;;;34.85;31.38;;;103.00;2227.20;;;;;;5093571;28;20070;-65
2022/12/29 06:43:20;;;;;;;19.88;11.55;;;103.00;2227.20;;;;;;5093410;28;20055;-63
2022/12/29 06:45:46;;;;;;;22.33;15.02;;;103.00;2227.20;;;;;;5093899;28;20020;-64
2022/12/29 06:48:11;;;;;;;20.25;13.48;;;103.10;2227.20;;;;;;5093394;28;20028;-65
2022/12/29 06:50:37;;;;;;;17.83;14.02;;;103.00;2227.20;;;;;;5093603;28;20118;-63
2022/12/29 06:53:03;;;;;;;19.33;15.88;;;103.00;2227.20;;;;;;5093546;28;20032;-64
2022/12/29 06:55:29;;;;;;;21.88;19.60;;;103.00;2227.20;;;;;;5093306;28;20541;-64
2022/12/29 06:57:58;;;;;;;24.55;22.35;;;103.10;2227.20;;;;;;5093358;28;20099;-65
2022/12/29 07:00:25;;;;;;;20.92;15.32;;;103.20;2227.20;;;;;;5093587;28;20024;-64
2022/12/29 07:02:51;;;;;;;26.20;19.98;;;103.20;2227.20;;;;;;5093412;28;20055;-64
2022/12/29 07:05:16;;;;;;;39.83;26.83;;;128.00;2252.80;;;;;;5093516;28;20054;-64
2022/12/29 07:07:42;;;;;;;31.42;23.98;;;103.30;2227.20;;;;;;5093048;28;20098;-63
2022/12/29 07:10:08;;;;;;;38.25;25.63;;;103.20;2227.20;;;;;;5092795;28;20484;-64
2022/12/29 07:12:34;;;;;;;24.38;16.42;;;103.30;2227.20;;;;;;5093040;28;20044;-64
2022/12/29 07:14:59;;;;;;;32.28;19.35;;;103.30;2227.20;;;;;;5092882;28;20507;-65
2022/12/29 07:17:25;;;;;;;49.40;33.95;;;103.20;2227.20;;;;;;5093076;28;20456;-65
2022/12/29 07:19:51;;;;;;;45.53;33.47;;;103.20;2227.20;;;;;;5092805;28;20034;-65
2022/12/29 07:22:16;;;;;;;82.05;57.70;;;103.20;2227.20;;;;;;5093102;28;20032;-65
2022/12/29 07:24:43;;;;;;;61.30;42.97;;;128.60;2252.80;;;;;;5092484;28;20385;-65
2022/12/29 07:27:09;;;;;;;36.05;23.42;;;128.00;2252.80;;;;;;5092111;28;20032;-62
2022/12/29 07:29:37;;;;;;;37.75;22.83;;;128.20;2252.80;;;;;;5092472;28;20031;-63
2022/12/29 07:32:03;;;;;;;32.85;22.77;;;128.30;2252.80;;;;;;5092900;28;20079;-64
2022/12/29 07:34:29;;;;;;;61.40;37.92;;;128.40;2252.80;;;;;;5092401;28;20535;-64
2022/12/29 07:36:54;;;;;;;60.72;35.90;;;128.30;2252.80;;;;;;5092539;28;20073;-64
2022/12/29 07:39:20;;;;;;;198.57;118.72;;;128.30;2252.80;;;;;;5092528;28;20127;-65
2022/12/29 07:41:46;;;;;;;229.25;141.98;;;128.30;2252.80;;;;;;5092372;28;20485;-66
2022/12/29 07:44:11;;;;;;;225.75;157.57;;;128.30;2252.80;;;;;;5091981;28;20044;-65
2022/12/29 07:46:37;;;;;;;281.05;187.18;;;128.50;2252.80;;;;;;5092530;28;20199;-63
2022/12/29 07:49:03;;;;;;;91.30;68.28;;;128.60;2252.80;;;;;;5092616;28;20107;-65
2022/12/29 07:51:28;;;;;;;120.20;85.50;;;128.80;2252.80;;;;;;5092353;28;20040;-66
2022/12/29 07:53:54;;;;;;;100.60;65.75;;;128.90;2252.80;;;;;;5092509;28;20016;-65
2022/12/29 07:56:20;;;;;;;62.53;43.65;;;128.90;2252.80;;;;;;5092179;28;20070;-60
2022/12/29 07:58:45;;;;;;;102.30;67.57;;;128.70;2252.80;;;;;;5092377;28;20023;-61
2022/12/29 08:01:11;;;;;;;70.57;46.97;;;128.70;2252.80;;;;;;5091910;28;20544;-61
2022/12/29 08:03:37;;;;;;;70.75;47.33;;;128.80;2252.80;;;;;;5092081;28;20031;-62
2022/12/29 08:06:03;;;;;;;244.77;210.30;;;128.80;2252.80;;;;;;5092176;28;20031;-62
2022/12/29 08:08:29;;;;;;;199.75;134.73;;;153.60;2252.80;;;;;;5091775;28;20381;-60
2022/12/29 08:10:55;;;;;;;168.25;103.93;;;153.80;2252.80;;;;;;5091847;28;20498;-60
2022/12/29 08:13:20;;;;;;;263.40;174.05;;;153.80;2252.80;;;;;;5091860;28;20027;-61
2022/12/29 08:15:46;;;;;;;348.02;248.00;;;153.70;2252.80;;;;;;5091733;28;20020;-61
2022/12/29 08:18:12;;;;;;;292.00;208.02;;;153.60;2252.80;;;;;;5091571;28;20099;-60
2022/12/29 08:20:37;;;;;;;305.15;221.45;;;153.70;2252.80;;;;;;5091899;28;20055;-60
2022/12/29 08:23:03;;;;;;;333.15;232.07;;;153.70;2252.80;;;;;;5091727;28;20020;-64
2022/12/29 08:25:29;;;;;;;233.55;158.82;;;153.80;2252.80;;;;;;5091464;28;20028;-60
2022/12/29 08:27:54;;;;;;;333.55;224.60;;;179.20;2252.80;;;;;;5091604;28;20479;-60
2022/12/29 08:30:20;;;;;;;354.38;243.55;;;205.00;2252.80;;;;;;5091527;28;20028;-62
2022/12/29 08:32:46;;;;;;;385.48;260.10;;;205.00;2252.80;;;;;;5091542;28;20028;-60
2022/12/29 08:35:12;;;;;;;338.58;226.50;;;205.10;2252.80;;;;;;5091510;28;20028;-61
2022/12/29 08:37:38;;;;;;;193.43;130.23;;;205.20;2252.80;;;;;;5091594;28;20024;-61
2022/12/29 08:40:05;;;;;;;217.07;146.80;;;205.40;2252.80;;;;;;5091158;28;20031;-65
2022/12/29 08:42:31;;;;;;;163.02;116.25;;;205.70;2252.80;;;;;;5091203;28;20378;-60
2022/12/29 08:44:58;;;;;;;229.93;159.98;;;230.50;2252.80;;;;;;5091478;28;20115;-71
2022/12/29 08:47:24;;;;;;;263.75;196.90;;;230.70;2252.80;;;;;;5091164;28;20454;-67
2022/12/29 08:49:50;;;;;;;218.60;158.82;;;230.90;2252.80;;;;;;5091274;28;20477;-69
2022/12/29 08:52:15;;;;;;;194.68;133.07;;;231.00;2252.80;;;;;;5091114;28;20079;-60
2022/12/29 08:54:41;;;;;;;169.00;114.55;;;231.00;2252.80;;;;;;5091106;28;20106;-62
2022/12/29 08:57:07;;;;;;;211.35;153.57;;;231.20;2252.80;;;;;;5091092;28;20099;-61
2022/12/29 08:59:32;;;;;;;411.15;305.08;;;256.00;2252.80;;;;;;5090834;28;20020;-68
2022/12/29 09:01:58;;;;;;;449.17;307.58;;;230.90;2252.80;;;;;;5090768;28;20381;-60
2022/12/29 09:04:24;;;;;;;409.17;275.67;;;230.60;2252.80;;;;;;5091134;28;20454;-61
2022/12/29 09:06:50;;;;;;;376.05;250.20;;;230.80;2252.80;;;;;;5090875;28;20081;-62
2022/12/29 09:09:16;;;;;;;303.48;212.45;;;230.90;2252.80;;;;;;5090879;28;20033;-60
2022/12/29 09:11:43;;;;;;;410.38;288.00;;;230.60;2252.80;;;;;;5090555;28;20044;-60
2022/12/29 09:14:08;;;;;;;462.55;344.52;;;230.50;2252.80;;;;;;5090766;28;20093;-64
2022/12/29 09:16:34;;;;;;;419.02;302.90;;;205.60;2252.80;;;;;;5090728;28;20090;-62
2022/12/29 09:19:01;;;;;;;398.30;297.42;;;205.40;2252.80;;;;;;5090619;28;20031;-61
2022/12/29 09:21:26;;;;;;;344.55;256.17;;;205.10;2252.80;;;;;;5090808;28;20024;-60
2022/12/29 09:23:52;;;;;;;373.35;272.25;;;180.10;2252.80;;;;;;5090466;28;20026;-63
2022/12/29 09:26:18;;;;;;;341.75;252.32;;;180.10;2252.80;;;;;;5090574;28;20032;-61
2022/12/29 09:28:44;;;;;;;267.20;193.43;;;205.60;2252.80;;;;;;5090552;28;20020;-60
2022/12/29 09:31:10;;;;;;;254.43;187.25;;;256.00;2252.80;;;;;;5090257;28;20039;-60
2022/12/29 09:33:36;;;;;;;275.58;210.15;;;282.10;2278.40;;;;;;5090418;28;20046;-60
2022/12/29 09:36:02;;;;;;;292.02;210.55;;;307.20;2304.00;;;;;;5090537;28;20051;-61
2022/12/29 09:38:29;;;;;;;194.73;141.98;;;282.10;2278.40;;;;;;5090106;28;20027;-61
2022/12/29 09:41:20;;;;;;;286.33;196.15;;;282.20;2278.40;;;;;;5090397;28;20020;-68
2022/12/29 09:44:12;;;;;;;454.35;263.20;;;282.30;2278.40;;;;;;5090276;28;20043;-60
2022/12/29 09:46:46;;;;;;;268.85;197.02;;;282.50;2278.40;;;;;;5086359;28;20443;-63
2022/12/29 09:49:20;;;;;;;327.13;242.50;;;307.30;2304.00;;;;;;5090205;28;20441;-60
2022/12/29 09:51:51;;;;;;;229.07;173.68;;;282.50;2278.40;;;;;;5089754;28;20043;-70
2022/12/29 09:54:26;;;;;;;352.30;268.05;;;282.30;2278.40;;;;;;5090051;28;20470;-65
2022/12/29 09:56:52;;;;;;;410.02;314.55;;;281.80;2278.40;;;;;;5090001;28;20031;-61
2022/12/29 09:59:25;;;;;;;394.58;297.30;;;256.90;2252.80;;;;;;5090110;28;20112;-61
2022/12/29 10:02:04;;;;;;;336.35;263.15;;;256.80;2252.80;;;;;;5090134;28;20028;-60
2022/12/29 10:04:30;;;;;;;262.10;205.98;;;256.50;2252.80;;;;;;5089950;28;20363;-68
2022/12/29 10:07:14;;;;;;;213.30;169.05;;;256.50;2252.80;;;;;;5090295;28;20463;-60
2022/12/29 10:10:17;;;;;;;224.80;172.80;;;256.00;2252.80;;;;;;5089739;28;20040;-60
2022/12/29 10:13:27;;;;;;;225.48;169.07;;;256.30;2252.80;;;;;;5089796;28;20042;-68
2022/12/29 10:15:57;;;;;;;232.70;175.95;;;231.20;2252.80;;;;;;5090192;28;20115;-63
2022/12/29 10:18:47;;;;;;;259.35;200.40;;;231.30;2252.80;;;;;;5090064;28;20142;-61
2022/12/29 10:21:28;;;;;;;216.63;159.85;;;231.20;2252.80;;;;;;5089851;28;20020;-60
2022/12/29 10:23:55;;;;;;;162.20;117.55;;;231.30;2252.80;;;;;;5089938;28;20084;-60
2022/12/29 10:26:28;;;;;;;178.63;133.75;;;231.30;2252.80;;;;;;5090128;28;20108;-61
2022/12/29 10:29:04;;;;;;;182.15;130.45;;;256.00;2252.80;;;;;;5092376;28;20024;-62
2022/12/29 10:31:38;;;;;;;193.60;147.25;;;256.10;2252.80;;;;;;5093505;28;20043;-61
2022/12/29 10:34:19;;;;;;;190.52;141.20;;;256.10;2252.80;;;;;;5093754;28;20032;-60
2022/12/29 10:36:48;;;;;;;184.52;138.32;;;256.30;2252.80;;;;;;5092461;28;20051;-64
2022/12/29 10:39:33;;;;;;;165.65;120.18;;;256.50;2252.80;;;;;;5092788;28;20020;-60
2022/12/29 10:42:08;;;;;;;199.98;146.40;;;281.60;2278.40;;;;;;5089871;28;20114;-61
2022/12/29 10:44:34;;;;;;;162.13;117.97;;;282.00;2278.40;;;;;;5089670;28;20068;-60
2022/12/29 10:47:04;;;;;;;159.25;124.85;;;282.10;2278.40;;;;;;5087818;28;20083;-60
2022/12/29 10:49:32;;;;;;;137.23;103.05;;;282.00;2278.40;;;;;;5089886;28;20024;-60
2022/12/29 10:52:02;;;;;;;160.70;118.85;;;282.10;2278.40;;;;;;5089887;28;20059;-61
2022/12/29 10:54:45;;;;;;;156.23;117.18;;;281.90;2278.40;;;;;;5089949;28;20024;-61
2022/12/29 10:57:13;;;;;;;155.53;114.43;;;282.00;2278.40;;;;;;5089717;28;20051;-60
2022/12/29 10:59:39;;;;;;;131.10;105.22;;;282.10;2278.40;;;;;;5089387;28;20326;-69
2022/12/29 11:02:04;;;;;;;163.18;110.38;;;282.00;2278.40;;;;;;5089634;28;20027;-61
2022/12/29 11:04:39;;;;;;;132.52;102.65;;;282.00;2278.40;;;;;;5092794;28;20106;-61
2022/12/29 11:07:06;;;;;;;137.15;97.22;;;282.10;2278.40;;;;;;5093283;28;20024;-60
2022/12/29 11:09:35;;;;;;;137.43;99.53;;;282.10;2278.40;;;;;;5092903;28;20016;-60
2022/12/29 11:12:19;;;;;;;133.95;95.00;;;282.20;2278.40;;;;;;5092913;28;20032;-59
2022/12/29 11:14:44;;;;;;;142.27;102.40;;;282.20;2278.40;;;;;;5093144;28;20021;-61
2022/12/29 11:17:15;;;;;;;142.02;95.25;;;282.40;2278.40;;;;;;5093069;28;20028;-60
2022/12/29 11:19:41;;;;;;;117.95;80.63;;;282.50;2278.40;;;;;;5091718;28;20439;-68
2022/12/29 11:22:14;;;;;;;100.57;69.55;;;307.20;2304.00;;;;;;5091813;28;20085;-69
2022/12/29 11:24:45;;;;;;;106.25;72.22;;;307.30;2304.00;;;;;;5089308;28;20020;-68
2022/12/29 11:27:16;;;;;;;85.35;57.38;;;307.30;2304.00;;;;;;5090070;28;20042;-64
2022/12/29 11:29:45;;;;;;;121.90;78.70;;;307.40;2304.00;;;;;;5090037;28;20070;-62
2022/12/29 11:32:17;;;;;;;91.35;61.30;;;307.50;2304.00;;;;;;5089763;28;20028;-66
2022/12/29 11:34:42;;;;;;;118.80;83.20;;;307.50;2304.00;;;;;;5089914;28;20099;-65
2022/12/29 11:37:39;;;;;;;107.50;82.57;;;307.70;2304.00;;;;;;5089991;28;20230;-62
2022/12/29 11:40:15;;;;;;;147.27;111.88;;;307.80;2304.00;;;;;;5084480;28;20067;-63
2022/12/29 11:43:04;;;;;;;151.57;123.18;;;307.70;2304.00;;;;;;5089270;28;20371;-65
2022/12/29 11:45:46;;;;;;;153.55;117.05;;;307.70;2304.00;;;;;;5089978;28;20028;-63
2022/12/29 11:48:19;;;;;;;145.23;107.13;;;307.70;2304.00;;;;;;5089941;28;20470;-61
2022/12/29 11:51:00;;;;;;;143.13;105.05;;;307.80;2304.00;;;;;;5090562;28;20035;-65
2022/12/29 11:53:45;;;;;;;146.48;116.53;;;307.80;2304.00;;;;;;5090285;28;20024;-63
2022/12/29 11:56:16;;;;;;;143.65;111.43;;;307.70;2304.00;;;;;;5089401;28;20037;-63
2022/12/29 11:58:42;;;;;;;115.15;86.63;;;307.80;2304.00;;;;;;5089817;28;20032;-64
2022/12/29 12:01:07;;;;;;;125.47;101.97;;;307.80;2304.00;;;;;;5090026;28;20016;-69
2022/12/29 12:03:38;;;;;;;109.60;89.28;;;307.80;2304.00;;;;;;5090049;28;20016;-66
2022/12/29 12:06:09;;;;;;;277.60;214.02;;;308.00;2304.00;;;;;;5088432;28;20035;-67
2022/12/29 12:08:43;;;;;;;146.20;100.63;;;332.80;2329.60;;;;;;5089766;28;20103;-61
2022/12/29 12:11:36;;;;;;;120.97;80.63;;;332.80;2329.60;;;;;;5088794;28;20863;-65
2022/12/29 12:14:17;;;;;;;97.15;66.82;;;332.90;2329.60;;;;;;5089018;28;20074;-63
2022/12/29 12:17:08;;;;;;;103.38;69.15;;;332.90;2329.60;;;;;;5089445;28;20016;-63
2022/12/29 12:20:14;;;;;;;126.20;82.95;;;333.00;2329.60;;;;;;5089210;28;20013;-60
2022/12/29 12:22:51;;;;;;;85.35;56.30;;;333.20;2329.60;;;;;;5088702;28;20036;-69
2022/12/29 12:25:23;;;;;;;112.47;68.60;;;333.10;2329.60;;;;;;5088668;28;20024;-68
2022/12/29 12:27:54;;;;;;;133.57;92.55;;;333.20;2329.60;;;;;;5088874;28;20097;-69
2022/12/29 12:30:25;;;;;;;92.47;57.97;;;333.40;2329.60;;;;;;5089106;28;20024;-65
2022/12/29 12:33:01;;;;;;;56.78;40.25;;;333.60;2329.60;;;;;;5088923;28;20039;-65
2022/12/29 12:36:00;;;;;;;53.03;39.92;;;358.40;2329.60;;;;;;5086866;28;20350;-61
2022/12/29 12:38:51;;;;;;;86.43;58.83;;;358.80;2329.60;;;;;;5089086;28;20370;-61
2022/12/29 12:41:21;;;;;;;49.85;34.70;;;359.00;2329.60;;;;;;5088524;28;20389;-69
2022/12/29 12:44:04;;;;;;;29.48;24.15;;;359.10;2329.60;;;;;;5088751;28;20086;-61